Time;durP1;ratioP1;P1;durP2;ratioP2;P2;SDS_P1;SDS_P2;PMS_P1;PMS_P2;Temp;Humidity;BMP_temperature;BMP_pressure;BME280_temperature;BME280_humidity;BME280_pressure;Samples;Min_cycle;Max_cycle;Signal;HPM_P1;HPM_P2
2023/01/20 00:01:11;;;;;;;12.80;10.57;;;0.00;99.90;;;;;;5002619;28;19964;-78
2023/01/20 00:03:41;;;;;;;17.35;11.90;;;0.00;99.90;;;;;;5002666;28;20065;-78
2023/01/20 00:06:07;;;;;;;18.67;13.13;;;0.00;99.90;;;;;;4999235;28;20128;-79
2023/01/20 00:08:33;;;;;;;22.45;14.48;;;0.10;99.90;;;;;;4965542;28;20057;-79
2023/01/20 00:11:06;;;;;;;22.52;15.20;;;0.10;99.90;;;;;;4981934;28;20045;-79
2023/01/20 00:13:32;;;;;;;24.52;15.82;;;0.20;99.90;;;;;;5002306;28;20076;-79
2023/01/20 00:16:00;;;;;;;28.23;17.73;;;0.20;99.90;;;;;;5000417;28;20060;-79
2023/01/20 00:18:26;;;;;;;26.23;18.17;;;0.30;99.90;;;;;;5007033;28;20113;-79
2023/01/20 00:20:51;;;;;;;32.33;19.23;;;0.30;99.90;;;;;;4983625;28;20440;-79
2023/01/20 00:23:17;;;;;;;26.95;18.23;;;0.40;99.90;;;;;;5002988;28;20619;-79
2023/01/20 00:25:42;;;;;;;32.90;18.73;;;0.40;99.90;;;;;;5010451;28;20306;-79
2023/01/20 00:28:08;;;;;;;27.92;19.08;;;0.40;99.90;;;;;;5006278;28;20453;-79
2023/01/20 00:30:34;;;;;;;31.85;20.50;;;0.50;99.90;;;;;;5003384;28;20176;-79
2023/01/20 00:33:00;;;;;;;34.25;20.92;;;0.50;99.90;;;;;;5003027;28;20137;-79
2023/01/20 00:35:25;;;;;;;32.13;19.17;;;0.60;99.90;;;;;;5006327;28;20038;-79
2023/01/20 00:37:51;;;;;;;33.67;22.23;;;0.60;99.90;;;;;;5004630;28;20107;-79
2023/01/20 00:40:16;;;;;;;33.53;21.02;;;0.70;99.90;;;;;;5002479;28;20663;-78
2023/01/20 00:42:42;;;;;;;32.92;21.60;;;0.70;99.90;;;;;;4999794;28;20112;-78
2023/01/20 00:45:08;;;;;;;32.17;21.88;;;0.70;99.90;;;;;;5005374;28;20056;-78
2023/01/20 00:47:33;;;;;;;31.02;21.10;;;0.70;99.90;;;;;;4982600;28;20508;-78
2023/01/20 00:49:59;;;;;;;29.38;18.90;;;0.70;99.90;;;;;;4999281;28;20108;-78
2023/01/20 00:52:24;;;;;;;28.00;19.05;;;0.70;99.90;;;;;;5002471;28;20046;-79
2023/01/20 00:54:50;;;;;;;28.08;19.08;;;0.80;99.90;;;;;;5004274;28;20046;-80
2023/01/20 00:57:15;;;;;;;27.40;18.55;;;0.80;99.90;;;;;;5002509;28;20084;-80
2023/01/20 00:59:41;;;;;;;25.65;17.83;;;0.80;99.90;;;;;;4987699;28;20041;-80
2023/01/20 01:02:07;;;;;;;28.40;18.38;;;0.80;99.90;;;;;;5006433;28;20045;-80
2023/01/20 01:04:32;;;;;;;21.33;16.20;;;0.80;99.90;;;;;;4990404;28;20601;-80
2023/01/20 01:06:58;;;;;;;24.42;16.75;;;0.80;99.90;;;;;;4988885;28;20515;-80
2023/01/20 01:09:23;;;;;;;22.30;15.48;;;0.90;99.90;;;;;;4994191;28;20049;-79
2023/01/20 01:11:49;;;;;;;20.17;15.55;;;0.90;99.90;;;;;;5009671;28;20046;-80
2023/01/20 01:14:15;;;;;;;21.35;15.90;;;0.80;99.90;;;;;;4994394;28;20062;-81
2023/01/20 01:16:41;;;;;;;20.77;15.88;;;0.90;99.90;;;;;;4995381;28;20085;-81
2023/01/20 01:19:07;;;;;;;22.10;16.13;;;0.90;99.90;;;;;;4988753;28;20046;-80
2023/01/20 01:21:32;;;;;;;19.48;15.57;;;0.90;99.90;;;;;;4990226;28;20049;-81
2023/01/20 01:23:58;;;;;;;21.42;15.90;;;0.90;99.90;;;;;;5009529;28;20255;-81
2023/01/20 01:26:24;;;;;;;20.60;15.40;;;0.90;99.90;;;;;;5005282;28;20380;-80
2023/01/20 01:28:50;;;;;;;25.55;17.08;;;0.90;99.90;;;;;;4984923;28;20504;-79
2023/01/20 01:31:17;;;;;;;22.90;15.90;;;0.90;99.90;;;;;;5013433;28;20104;-79
2023/01/20 01:33:43;;;;;;;19.90;14.55;;;0.90;99.90;;;;;;5010709;28;20053;-78
2023/01/20 01:36:12;;;;;;;21.00;14.50;;;0.90;99.90;;;;;;5008551;28;20045;-78
2023/01/20 01:38:38;;;;;;;18.77;14.48;;;0.90;99.90;;;;;;4998337;28;20404;-79
2023/01/20 01:41:04;;;;;;;20.42;15.05;;;0.90;99.90;;;;;;5013499;28;20050;-79
2023/01/20 01:43:32;;;;;;;22.30;15.15;;;0.90;99.90;;;;;;4993781;28;20042;-80
2023/01/20 01:45:58;;;;;;;18.77;14.45;;;0.90;99.90;;;;;;5009823;28;20037;-79
2023/01/20 01:48:31;;;;;;;22.30;15.20;;;0.90;99.90;;;;;;4989297;28;20053;-79
2023/01/20 01:51:28;;;;;;;19.73;14.93;;;0.90;99.90;;;;;;5004621;28;20588;-79
2023/01/20 01:54:07;;;;;;;18.88;14.73;;;0.90;99.90;;;;;;5006089;28;20050;-79
2023/01/20 01:56:33;;;;;;;19.13;14.73;;;0.90;99.90;;;;;;4980848;28;20061;-78
2023/01/20 01:59:01;;;;;;;17.45;14.15;;;0.90;99.90;;;;;;4981170;28;20069;-78
2023/01/20 02:01:27;;;;;;;;;;;0.90;99.90;;;;;;4999564;28;20041;-78
2023/01/20 02:04:05;;;;;;;19.58;13.75;;;0.90;99.90;;;;;;4996348;28;19921;-78
2023/01/20 02:06:33;;;;;;;18.35;13.93;;;0.90;99.90;;;;;;4994029;28;20120;-78
2023/01/20 02:09:01;;;;;;;17.67;14.13;;;0.90;99.90;;;;;;4981281;28;20082;-78
2023/01/20 02:11:42;;;;;;;18.27;13.85;;;0.90;99.90;;;;;;4999794;28;20429;-78
2023/01/20 02:14:08;;;;;;;19.30;14.65;;;0.90;99.90;;;;;;4998330;28;20042;-78
2023/01/20 02:16:42;;;;;;;19.90;15.38;;;0.90;99.90;;;;;;4999574;28;20062;-78
2023/01/20 02:19:43;;;;;;;20.20;14.90;;;0.90;99.90;;;;;;4998693;28;20128;-78
2023/01/20 02:22:41;;;;;;;18.42;15.00;;;0.90;99.90;;;;;;5000190;28;20668;-78
2023/01/20 02:25:23;;;;;;;18.45;14.65;;;0.90;99.90;;;;;;4996955;28;20074;-78
2023/01/20 02:27:55;;;;;;;19.35;14.82;;;0.90;99.90;;;;;;4982300;28;20057;-80
2023/01/20 02:30:40;;;;;;;17.98;14.70;;;1.00;99.90;;;;;;4984709;28;20046;-79
2023/01/20 02:33:13;;;;;;;20.23;14.88;;;1.00;99.90;;;;;;4965220;28;20046;-79
2023/01/20 02:35:50;;;;;;;17.55;14.38;;;1.00;99.90;;;;;;4998656;28;20045;-79
2023/01/20 02:38:40;;;;;;;15.38;13.00;;;1.00;99.90;;;;;;4999485;28;20157;-79
2023/01/20 02:41:20;;;;;;;14.85;11.70;;;1.00;99.90;;;;;;4984336;28;20175;-79
2023/01/20 02:44:04;;;;;;;13.13;11.40;;;0.90;99.90;;;;;;5003171;28;20149;-79
2023/01/20 02:46:39;;;;;;;15.85;12.20;;;0.90;99.90;;;;;;5002418;28;20053;-80
2023/01/20 02:49:08;;;;;;;14.77;11.90;;;1.00;99.90;;;;;;4985072;28;20517;-80
2023/01/20 02:51:41;;;;;;;14.90;12.05;;;1.00;99.90;;;;;;5003825;28;20464;-79
2023/01/20 02:54:11;;;;;;;13.75;11.73;;;1.00;99.90;;;;;;5004585;28;20176;-79
2023/01/20 02:56:38;;;;;;;15.27;10.98;;;0.90;99.90;;;;;;5005002;28;20049;-79
2023/01/20 02:59:08;;;;;;;13.63;11.75;;;0.90;99.90;;;;;;5006504;28;20041;-79
2023/01/20 03:01:42;;;;;;;13.40;10.93;;;0.90;99.90;;;;;;5005598;28;20341;-79
2023/01/20 03:04:10;;;;;;;13.88;11.02;;;0.90;99.90;;;;;;4981624;28;20049;-79
2023/01/20 03:06:41;;;;;;;15.35;11.88;;;0.90;99.90;;;;;;4992403;28;20054;-79
2023/01/20 03:09:12;;;;;;;13.82;11.75;;;0.90;99.90;;;;;;5002512;28;20046;-79
2023/01/20 03:11:44;;;;;;;12.27;10.48;;;0.90;99.90;;;;;;5003935;28;20169;-79
2023/01/20 03:14:12;;;;;;;14.13;10.68;;;0.90;99.90;;;;;;4990328;28;20042;-79
2023/01/20 03:16:39;;;;;;;11.98;10.55;;;0.90;99.90;;;;;;4972333;28;20136;-79
2023/01/20 03:19:04;;;;;;;12.18;10.60;;;0.80;99.90;;;;;;5003425;28;20129;-79
2023/01/20 03:21:32;;;;;;;13.82;10.80;;;0.70;99.90;;;;;;5006171;28;20506;-79
2023/01/20 03:24:03;;;;;;;11.40;9.55;;;0.70;99.90;;;;;;5004743;28;20038;-79
2023/01/20 03:26:29;;;;;;;13.05;10.73;;;0.80;99.90;;;;;;5005540;28;20053;-79
2023/01/20 03:28:56;;;;;;;13.73;11.10;;;0.70;99.90;;;;;;5007192;28;20073;-79
2023/01/20 03:31:27;;;;;;;17.55;11.40;;;0.70;99.90;;;;;;4990428;28;20054;-79
2023/01/20 03:33:57;;;;;;;14.88;10.73;;;0.70;99.90;;;;;;5011830;28;20050;-79
2023/01/20 03:36:25;;;;;;;12.63;10.45;;;0.80;99.90;;;;;;4990396;28;20049;-79
2023/01/20 03:38:52;;;;;;;14.52;11.23;;;0.70;99.90;;;;;;4992530;28;20057;-79
2023/01/20 03:41:33;;;;;;;12.88;10.73;;;0.70;99.90;;;;;;5004898;28;20131;-79
2023/01/20 03:44:22;;;;;;;14.15;11.20;;;0.70;99.90;;;;;;4995410;28;20056;-79
2023/01/20 03:46:58;;;;;;;12.65;10.45;;;0.70;99.90;;;;;;5013907;28;20439;-79
2023/01/20 03:49:50;;;;;;;13.27;10.40;;;0.70;99.90;;;;;;5013388;28;20132;-79
2023/01/20 03:52:42;;;;;;;13.60;10.75;;;0.70;99.90;;;;;;5012932;28;20382;-79
2023/01/20 03:55:15;;;;;;;13.38;10.80;;;0.80;99.90;;;;;;4973154;28;20061;-79
2023/01/20 03:57:50;;;;;;;13.40;10.55;;;0.80;99.90;;;;;;5006160;28;20072;-78
2023/01/20 04:00:18;;;;;;;13.30;10.98;;;0.80;99.90;;;;;;5004898;28;20117;-78
2023/01/20 04:02:44;;;;;;;12.95;11.00;;;0.80;99.90;;;;;;4997912;28;20493;-77
2023/01/20 04:05:10;;;;;;;13.48;10.52;;;0.80;99.90;;;;;;4997240;28;20125;-77
2023/01/20 04:07:39;;;;;;;13.63;10.82;;;0.80;99.90;;;;;;4998301;28;20057;-77
2023/01/20 04:10:10;;;;;;;13.45;10.93;;;0.80;99.90;;;;;;4997417;28;20156;-77
2023/01/20 04:12:35;;;;;;;12.02;10.45;;;0.70;99.90;;;;;;4997376;28;20096;-77
2023/01/20 04:15:01;;;;;;;13.88;10.82;;;0.80;99.90;;;;;;4999646;28;20114;-77
2023/01/20 04:17:28;;;;;;;11.45;9.85;;;0.80;99.90;;;;;;4998452;28;20042;-77
2023/01/20 04:19:54;;;;;;;12.77;11.02;;;0.70;99.90;;;;;;4999319;28;20058;-77
2023/01/20 04:22:34;;;;;;;14.32;10.95;;;0.70;99.90;;;;;;4996631;28;20048;-77
2023/01/20 04:25:10;;;;;;;16.00;12.48;;;0.70;99.90;;;;;;5000347;28;20095;-77
2023/01/20 04:27:36;;;;;;;16.13;12.60;;;0.70;99.90;;;;;;4978477;28;20058;-77
2023/01/20 04:30:01;;;;;;;18.73;12.90;;;0.80;99.90;;;;;;4998531;28;20444;-77
2023/01/20 04:32:27;;;;;;;20.52;13.40;;;0.80;99.90;;;;;;4983299;28;20554;-77
2023/01/20 04:34:53;;;;;;;18.77;13.38;;;0.80;99.90;;;;;;5000021;28;20057;-77
2023/01/20 04:37:18;;;;;;;18.02;13.85;;;0.80;99.90;;;;;;5001566;28;20053;-78
2023/01/20 04:39:44;;;;;;;19.83;14.60;;;0.80;99.90;;;;;;5003162;28;20503;-78
2023/01/20 04:42:10;;;;;;;19.52;14.57;;;0.80;99.90;;;;;;4972598;28;20125;-78
2023/01/20 04:44:36;;;;;;;18.45;14.52;;;0.90;99.90;;;;;;4981677;28;20054;-78
2023/01/20 04:47:02;;;;;;;21.92;14.82;;;0.80;99.90;;;;;;4999657;28;20034;-78
2023/01/20 04:49:27;;;;;;;20.25;15.02;;;0.80;99.90;;;;;;4982036;28;20034;-78
2023/01/20 04:51:53;;;;;;;21.85;14.65;;;0.80;99.90;;;;;;4998261;28;20160;-78
2023/01/20 04:54:19;;;;;;;22.52;16.48;;;0.80;99.90;;;;;;4998868;28;20085;-77
2023/01/20 04:56:46;;;;;;;24.45;16.60;;;0.90;99.90;;;;;;4998646;28;20488;-77
2023/01/20 04:59:12;;;;;;;23.02;16.15;;;0.80;99.90;;;;;;5000672;28;20041;-77
2023/01/20 05:01:37;;;;;;;24.88;16.92;;;0.80;99.90;;;;;;4998483;28;20042;-77
2023/01/20 05:04:03;;;;;;;21.85;16.05;;;0.80;99.90;;;;;;5006181;28;20123;-77
2023/01/20 05:06:28;;;;;;;24.70;17.17;;;0.90;99.90;;;;;;5001053;28;20045;-77
2023/01/20 05:08:54;;;;;;;24.55;18.17;;;0.90;99.90;;;;;;5003238;28;20064;-77
2023/01/20 05:11:19;;;;;;;25.85;18.00;;;0.90;99.90;;;;;;5001735;28;20860;-77
2023/01/20 05:13:45;;;;;;;25.60;17.70;;;0.90;99.90;;;;;;5006538;28;20092;-77
2023/01/20 05:16:11;;;;;;;27.13;18.25;;;0.90;99.90;;;;;;4984327;28;20416;-77
2023/01/20 05:18:37;;;;;;;27.90;18.35;;;0.90;99.90;;;;;;4998252;28;20037;-77
2023/01/20 05:21:04;;;;;;;27.20;17.95;;;0.90;99.90;;;;;;4999053;28;20088;-77
2023/01/20 05:23:29;;;;;;;24.48;18.10;;;0.90;99.90;;;;;;4979953;28;20401;-77
2023/01/20 05:25:55;;;;;;;27.90;19.38;;;0.90;99.90;;;;;;5005894;28;20037;-77
2023/01/20 05:28:21;;;;;;;27.55;18.92;;;0.90;99.90;;;;;;5003550;28;20124;-77
2023/01/20 05:30:47;;;;;;;27.02;18.90;;;0.90;99.90;;;;;;5000726;28;20080;-77
2023/01/20 05:33:13;;;;;;;31.13;20.35;;;0.90;99.90;;;;;;5000017;28;21322;-77
2023/01/20 05:35:39;;;;;;;28.80;19.67;;;0.90;99.90;;;;;;4966732;28;20054;-77
2023/01/20 05:38:05;;;;;;;29.60;20.02;;;0.90;99.90;;;;;;4982137;28;20139;-77
2023/01/20 05:40:30;;;;;;;30.02;20.55;;;0.90;99.90;;;;;;5002932;28;20042;-77
2023/01/20 05:42:59;;;;;;;31.50;20.75;;;0.90;99.90;;;;;;5001054;28;20369;-77
2023/01/20 05:45:25;;;;;;;31.52;20.65;;;0.90;99.90;;;;;;4999384;28;20046;-76
2023/01/20 05:47:58;;;;;;;31.27;21.20;;;0.90;99.90;;;;;;5000238;28;20045;-76
2023/01/20 05:50:25;;;;;;;31.33;21.13;;;0.90;99.90;;;;;;5000520;28;20046;-76
2023/01/20 05:52:51;;;;;;;35.58;22.20;;;1.00;99.90;;;;;;5006239;28;20800;-76
2023/01/20 05:55:16;;;;;;;33.17;22.42;;;0.90;99.90;;;;;;4998384;28;20046;-77
2023/01/20 05:57:42;;;;;;;36.10;23.38;;;1.00;99.90;;;;;;4999461;28;20868;-76
2023/01/20 06:00:08;;;;;;;34.00;23.10;;;1.00;99.90;;;;;;5001379;28;20034;-76
2023/01/20 06:02:34;;;;;;;34.20;22.67;;;1.00;99.90;;;;;;5001994;28;20050;-75
2023/01/20 06:05:02;;;;;;;33.40;21.90;;;1.00;99.90;;;;;;5004266;28;20049;-76
2023/01/20 06:07:28;;;;;;;;;;;1.00;99.90;;;;;;4987470;28;20062;-76
2023/01/20 06:09:54;;;;;;;33.25;22.13;;;1.00;99.90;;;;;;5006133;28;19925;-76
2023/01/20 06:12:20;;;;;;;34.53;22.85;;;1.00;99.90;;;;;;4987875;28;20508;-76
2023/01/20 06:14:46;;;;;;;33.15;22.50;;;1.00;99.90;;;;;;5001915;28;20180;-77
2023/01/20 06:17:11;;;;;;;32.55;22.33;;;1.00;99.90;;;;;;4996932;28;21288;-77
2023/01/20 06:19:37;;;;;;;34.95;23.30;;;1.00;99.90;;;;;;4999670;28;20050;-77
2023/01/20 06:22:02;;;;;;;34.33;23.00;;;1.00;99.90;;;;;;4997483;28;20072;-78
2023/01/20 06:24:28;;;;;;;34.20;22.80;;;1.00;99.90;;;;;;4981852;28;20169;-78
2023/01/20 06:26:54;;;;;;;33.20;22.33;;;1.00;99.90;;;;;;4998396;28;20056;-77
2023/01/20 06:29:20;;;;;;;38.08;24.58;;;1.00;99.90;;;;;;4996537;28;20037;-77
2023/01/20 06:31:46;;;;;;;38.45;23.90;;;1.00;99.90;;;;;;5003958;28;20046;-77
2023/01/20 06:34:12;;;;;;;39.70;24.98;;;1.00;99.90;;;;;;5000967;28;20034;-77
2023/01/20 06:36:38;;;;;;;39.35;24.05;;;1.10;99.90;;;;;;5000961;28;20125;-77
2023/01/20 06:39:04;;;;;;;37.53;25.25;;;1.10;99.90;;;;;;5000388;28;20555;-77
2023/01/20 06:41:30;;;;;;;38.28;24.98;;;1.10;99.90;;;;;;4999157;28;20077;-77
2023/01/20 06:43:55;;;;;;;37.65;24.05;;;1.10;99.90;;;;;;4997989;28;20038;-76
2023/01/20 06:46:21;;;;;;;38.95;23.20;;;1.10;99.90;;;;;;4999745;28;20049;-76
2023/01/20 06:48:47;;;;;;;36.13;24.45;;;1.10;99.90;;;;;;4998811;28;20623;-76
2023/01/20 06:51:18;;;;;;;37.10;24.67;;;1.10;99.90;;;;;;4999853;28;20136;-77
2023/01/20 06:53:44;;;;;;;36.35;23.85;;;1.10;99.90;;;;;;5006512;28;20060;-78
2023/01/20 06:56:11;;;;;;;38.72;23.90;;;1.10;99.90;;;;;;4994160;28;20133;-79
2023/01/20 06:58:37;;;;;;;39.45;24.27;;;1.10;99.90;;;;;;5008456;28;20069;-78
2023/01/20 07:01:10;;;;;;;37.67;24.73;;;1.10;99.90;;;;;;5006274;28;20048;-78
2023/01/20 07:03:36;;;;;;;36.72;22.25;;;1.10;99.90;;;;;;5005893;28;20091;-79
2023/01/20 07:06:04;;;;;;;35.35;22.55;;;1.10;99.90;;;;;;4998867;28;20045;-77
2023/01/20 07:08:30;;;;;;;36.58;22.20;;;1.10;99.90;;;;;;5001924;28;20077;-77
2023/01/20 07:10:56;;;;;;;38.92;23.55;;;1.10;99.90;;;;;;4998579;28;22072;-76
2023/01/20 07:13:21;;;;;;;32.08;21.08;;;1.10;99.90;;;;;;4980861;28;20054;-76
2023/01/20 07:15:47;;;;;;;34.17;22.45;;;1.10;99.90;;;;;;5000073;28;20045;-76
2023/01/20 07:18:13;;;;;;;34.85;21.65;;;1.10;99.90;;;;;;4999533;28;21286;-76
2023/01/20 07:20:39;;;;;;;33.22;20.73;;;1.10;99.90;;;;;;4981564;28;20050;-78
2023/01/20 07:23:05;;;;;;;37.05;23.17;;;1.10;99.90;;;;;;4982839;28;20073;-78
2023/01/20 07:25:31;;;;;;;35.35;20.98;;;1.10;99.90;;;;;;5002133;28;20620;-77
2023/01/20 07:27:56;;;;;;;34.00;22.10;;;1.10;99.90;;;;;;5002494;28;20125;-78
2023/01/20 07:30:23;;;;;;;33.17;20.90;;;1.10;99.90;;;;;;5003195;28;20045;-79
2023/01/20 07:32:48;;;;;;;32.20;21.27;;;1.10;99.90;;;;;;5006668;28;20041;-78
2023/01/20 07:35:14;;;;;;;36.08;21.63;;;1.00;99.90;;;;;;5007129;28;20615;-79
2023/01/20 07:37:40;;;;;;;38.67;23.27;;;1.10;99.90;;;;;;5008445;28;20123;-79
2023/01/20 07:40:07;;;;;;;33.92;20.60;;;1.10;99.90;;;;;;5010370;28;20042;-80
2023/01/20 07:42:35;;;;;;;35.35;22.95;;;1.10;99.90;;;;;;5012636;28;20045;-77
2023/01/20 07:45:01;;;;;;;34.70;22.05;;;1.10;99.90;;;;;;5006839;28;20081;-78
2023/01/20 07:47:26;;;;;;;34.08;21.73;;;1.10;99.90;;;;;;4995128;28;20045;-78
2023/01/20 07:49:52;;;;;;;36.80;22.48;;;1.10;99.90;;;;;;4988849;28;20060;-77
2023/01/20 07:52:17;;;;;;;35.17;22.40;;;1.10;99.90;;;;;;5006153;28;20077;-77
2023/01/20 07:54:43;;;;;;;35.33;21.90;;;1.10;99.90;;;;;;5007090;28;20034;-77
2023/01/20 07:57:09;;;;;;;37.55;23.33;;;1.10;99.90;;;;;;4998175;28;20045;-76
2023/01/20 07:59:34;;;;;;;35.35;22.20;;;1.10;99.90;;;;;;5006129;28;20117;-79
2023/01/20 08:02:00;;;;;;;35.45;22.05;;;1.10;99.90;;;;;;4988371;28;20046;-78
2023/01/20 08:04:25;;;;;;;35.47;23.08;;;1.10;99.90;;;;;;4999982;28;20033;-78
2023/01/20 08:06:51;;;;;;;34.88;22.60;;;1.20;99.90;;;;;;4985047;28;20049;-78
2023/01/20 08:09:17;;;;;;;36.97;23.48;;;1.20;99.90;;;;;;5000720;28;20377;-79
2023/01/20 08:11:43;;;;;;;37.95;22.92;;;1.20;99.90;;;;;;4982643;28;20065;-78
2023/01/20 08:14:08;;;;;;;38.92;24.80;;;1.20;99.90;;;;;;4999198;28;20045;-79
2023/01/20 08:16:34;;;;;;;42.17;23.48;;;1.20;99.90;;;;;;4969740;28;20134;-80
2023/01/20 08:19:00;;;;;;;36.88;23.25;;;1.20;99.90;;;;;;4997573;28;20085;-76
2023/01/20 08:21:29;;;;;;;38.28;23.42;;;1.20;99.90;;;;;;4999524;28;20034;-75
2023/01/20 08:23:56;;;;;;;36.60;22.65;;;1.20;99.90;;;;;;4996327;28;20057;-75
2023/01/20 08:26:24;;;;;;;37.28;22.45;;;1.20;99.90;;;;;;4996654;28;20073;-75
2023/01/20 08:28:50;;;;;;;39.83;23.60;;;1.20;99.90;;;;;;4997750;28;20089;-76
2023/01/20 08:31:19;;;;;;;37.65;22.23;;;1.30;99.90;;;;;;5000454;28;20116;-71
2023/01/20 08:33:45;;;;;;;37.83;22.30;;;1.30;99.90;;;;;;4999130;28;20412;-76
2023/01/20 08:36:23;;;;;;;41.17;24.92;;;1.30;99.90;;;;;;4980681;28;20045;-78
2023/01/20 08:38:49;;;;;;;41.97;24.20;;;1.30;99.90;;;;;;4999659;28;20052;-76
2023/01/20 08:41:18;;;;;;;41.67;23.83;;;1.30;99.90;;;;;;5002916;28;20038;-77
2023/01/20 08:43:44;;;;;;;41.47;25.00;;;1.30;99.90;;;;;;5008052;28;20041;-79
2023/01/20 08:46:12;;;;;;;43.22;25.40;;;1.30;99.90;;;;;;5006545;28;20552;-77
2023/01/20 08:48:40;;;;;;;43.15;24.58;;;1.30;99.90;;;;;;4987938;28;20057;-77
2023/01/20 08:51:09;;;;;;;42.03;24.23;;;1.30;99.90;;;;;;5007447;28;20046;-78
2023/01/20 08:53:35;;;;;;;41.55;25.05;;;1.30;99.90;;;;;;4985330;28;20053;-77
2023/01/20 08:56:01;;;;;;;42.47;24.77;;;1.30;99.90;;;;;;5001499;28;20046;-77
2023/01/20 08:58:28;;;;;;;43.25;24.90;;;1.30;99.90;;;;;;5003516;28;20041;-77
2023/01/20 09:00:54;;;;;;;41.50;25.58;;;1.30;99.90;;;;;;5009639;28;20045;-77
2023/01/20 09:03:20;;;;;;;46.20;26.27;;;1.40;99.90;;;;;;4995449;28;20509;-77
2023/01/20 09:05:46;;;;;;;42.35;25.73;;;1.30;99.90;;;;;;4984917;28;20049;-76
2023/01/20 09:08:12;;;;;;;45.08;23.55;;;1.30;99.90;;;;;;4989068;28;20057;-76
2023/01/20 09:10:38;;;;;;;41.50;24.17;;;1.30;99.90;;;;;;5009299;28;20042;-76
2023/01/20 09:13:04;;;;;;;46.70;26.73;;;1.30;99.90;;;;;;4976926;28;20476;-77
2023/01/20 09:15:30;;;;;;;43.95;24.95;;;1.30;99.90;;;;;;5004053;28;20119;-76
2023/01/20 09:17:57;;;;;;;45.33;25.92;;;1.30;99.90;;;;;;5005328;28;21910;-77
2023/01/20 09:20:24;;;;;;;48.40;27.07;;;1.30;99.90;;;;;;4984420;28;20129;-77
2023/01/20 09:22:50;;;;;;;44.75;24.98;;;1.30;99.90;;;;;;4982726;28;20052;-77
2023/01/20 09:25:16;;;;;;;50.88;29.15;;;1.30;99.90;;;;;;5008586;28;20042;-76
2023/01/20 09:27:41;;;;;;;48.15;25.33;;;1.40;99.90;;;;;;5009701;28;20034;-77
2023/01/20 09:30:08;;;;;;;46.45;26.27;;;;;;;;;;5008589;28;20046;-77
2023/01/20 09:32:33;;;;;;;43.75;24.20;;;1.40;99.90;;;;;;4970141;28;20460;-77
2023/01/20 09:34:59;;;;;;;41.20;23.90;;;1.40;99.90;;;;;;5012145;28;20034;-76
2023/01/20 09:43:54;;;;;;;37.47;22.67;;;1.40;99.90;;;;;;4987516;28;20058;-76
2023/01/20 09:46:22;;;;;;;39.75;21.80;;;1.40;99.90;;;;;;5000463;28;20050;-75
2023/01/20 09:54:53;;;;;;;38.78;22.90;;;1.50;99.90;;;;;;4996930;28;20086;-77
2023/01/20 09:57:23;;;;;;;40.22;22.33;;;1.50;99.90;;;;;;5001832;28;20511;-77
2023/01/20 09:59:58;;;;;;;38.53;21.80;;;1.50;99.90;;;;;;5013513;28;20092;-77
2023/01/20 10:02:28;;;;;;;35.80;20.73;;;1.50;99.90;;;;;;5012722;28;20052;-77
2023/01/20 10:04:59;;;;;;;35.63;22.13;;;1.60;99.90;;;;;;4996508;28;20392;-77
2023/01/20 10:07:28;;;;;;;42.50;22.85;;;1.60;99.90;;;;;;5016723;28;20411;-77
2023/01/20 10:09:59;;;;;;;36.83;21.42;;;1.50;99.90;;;;;;4998589;28;20492;-77
2023/01/20 10:12:29;;;;;;;40.63;22.98;;;1.60;99.90;;;;;;5014609;28;20441;-77
2023/01/20 10:15:07;;;;;;;38.05;22.40;;;1.70;99.90;;;;;;5005890;28;20146;-77
2023/01/20 10:17:44;;;;;;;39.28;22.13;;;1.60;99.90;;;;;;5017605;28;20046;-77
2023/01/20 10:20:20;;;;;;;37.70;21.17;;;1.60;99.90;;;;;;5017747;28;20389;-77
2023/01/20 10:23:04;;;;;;;39.35;22.08;;;1.60;99.90;;;;;;5016531;28;20054;-78
2023/01/20 10:25:40;;;;;;;43.25;22.48;;;1.60;99.90;;;;;;5016784;28;20512;-77
2023/01/20 10:28:17;;;;;;;38.75;21.77;;;1.50;99.90;;;;;;5012919;28;20420;-77
2023/01/20 10:30:43;;;;;;;37.13;20.90;;;1.60;99.90;;;;;;5008588;28;20449;-77
2023/01/20 10:33:13;;;;;;;36.05;21.85;;;1.60;99.90;;;;;;5007092;28;20042;-77
2023/01/20 10:35:46;;;;;;;39.05;21.92;;;1.60;99.90;;;;;;5001842;28;20441;-77
2023/01/20 10:38:35;;;;;;;41.13;21.75;;;1.60;99.90;;;;;;4998088;28;20061;-77
2023/01/20 10:41:11;;;;;;;40.92;22.73;;;1.50;99.90;;;;;;5016333;28;20049;-77
2023/01/20 10:43:37;;;;;;;37.08;21.83;;;1.60;99.90;;;;;;5015745;28;20126;-77
2023/01/20 10:46:45;;;;;;;36.75;22.05;;;1.60;99.90;;;;;;4998456;28;20058;-77
2023/01/20 10:49:39;;;;;;;36.30;20.38;;;1.60;99.90;;;;;;4979488;28;20073;-78
2023/01/20 10:52:33;;;;;;;39.17;22.60;;;1.70;99.90;;;;;;4996433;28;20046;-77
2023/01/20 10:55:19;;;;;;;38.58;22.08;;;1.70;99.90;;;;;;4996621;28;20093;-77
2023/01/20 10:57:59;;;;;;;38.90;21.38;;;1.70;99.90;;;;;;5006411;28;20056;-77
2023/01/20 11:00:29;;;;;;;33.53;18.75;;;1.70;99.90;;;;;;4997459;28;20119;-77
2023/01/20 11:02:57;;;;;;;33.55;19.63;;;1.60;99.90;;;;;;4998174;28;20054;-77
2023/01/20 11:05:36;;;;;;;35.55;20.58;;;1.70;99.90;;;;;;5002362;28;20034;-77
2023/01/20 11:08:13;;;;;;;38.25;21.83;;;1.70;99.90;;;;;;4996880;28;20104;-77
2023/01/20 11:10:40;;;;;;;37.35;21.88;;;1.70;99.90;;;;;;4995962;28;20500;-77
2023/01/20 11:13:09;;;;;;;36.72;21.15;;;1.70;99.90;;;;;;5007167;28;20045;-77
2023/01/20 11:15:42;;;;;;;38.72;21.88;;;1.70;99.90;;;;;;5005890;28;20045;-76
2023/01/20 11:18:31;;;;;;;44.67;22.02;;;1.70;99.90;;;;;;5014032;28;20033;-76
2023/01/20 11:21:01;;;;;;;37.90;21.65;;;1.70;99.90;;;;;;5001862;28;20096;-76
2023/01/20 11:23:38;;;;;;;40.47;22.20;;;1.80;99.90;;;;;;5015915;28;20131;-76
2023/01/20 11:26:16;;;;;;;42.78;24.13;;;1.80;99.90;;;;;;5010352;28;20141;-77
2023/01/20 11:29:07;;;;;;;39.78;22.40;;;1.70;99.90;;;;;;5008233;28;20103;-77
2023/01/20 11:31:51;;;;;;;38.40;21.83;;;1.70;99.90;;;;;;4992903;28;20077;-77
2023/01/20 11:34:20;;;;;;;38.65;23.33;;;1.70;99.90;;;;;;5008076;28;20137;-79
2023/01/20 11:36:46;;;;;;;36.50;22.55;;;1.70;99.90;;;;;;5011356;28;20412;-77
2023/01/20 11:39:29;;;;;;;36.90;21.02;;;1.70;99.90;;;;;;5008357;28;20042;-77
2023/01/20 11:42:14;;;;;;;38.72;22.17;;;1.70;99.90;;;;;;5009848;28;20050;-77
2023/01/20 11:44:44;;;;;;;33.47;20.73;;;1.70;99.90;;;;;;4989136;28;20042;-77
2023/01/20 11:47:26;;;;;;;36.08;22.00;;;1.70;99.90;;;;;;5010850;28;20110;-77
2023/01/20 11:50:07;;;;;;;35.60;20.70;;;1.70;99.90;;;;;;5008052;28;20092;-77
2023/01/20 11:52:34;;;;;;;38.83;21.85;;;1.70;99.90;;;;;;4989910;28;20070;-77
2023/01/20 11:55:07;;;;;;;36.20;21.50;;;1.70;99.90;;;;;;4985809;28;20188;-77
2023/01/20 11:57:33;;;;;;;32.72;20.88;;;1.70;99.90;;;;;;4986614;28;20038;-77
2023/01/20 11:59:58;;;;;;;36.55;22.10;;;1.80;99.90;;;;;;5003752;28;20392;-77
2023/01/20 12:02:27;;;;;;;35.58;20.88;;;1.80;99.90;;;;;;4989275;28;20049;-77
2023/01/20 12:05:02;;;;;;;34.75;21.60;;;;;;;;;;4989277;28;20119;-77
2023/01/20 12:07:34;;;;;;;36.83;22.00;;;1.90;99.90;;;;;;4986296;28;20054;-77
2023/01/20 12:10:13;;;;;;;36.60;21.33;;;1.90;99.90;;;;;;4985984;28;20096;-77
2023/01/20 12:12:56;;;;;;;33.20;21.58;;;2.00;99.90;;;;;;5005119;28;20045;-77
2023/01/20 12:15:28;;;;;;;40.90;23.95;;;2.00;99.90;;;;;;5008682;28;20065;-77
2023/01/20 12:17:58;;;;;;;39.25;22.70;;;1.90;99.90;;;;;;4990262;28;20133;-79
2023/01/20 12:20:27;;;;;;;40.13;23.98;;;1.90;99.90;;;;;;4973436;28;20069;-79
2023/01/20 12:22:58;;;;;;;40.90;24.42;;;2.00;99.90;;;;;;4991047;28;20052;-78
2023/01/20 12:25:30;;;;;;;41.88;24.88;;;1.90;99.90;;;;;;5004905;28;20878;-78
2023/01/20 12:28:35;;;;;;;32.92;21.80;;;1.90;99.90;;;;;;5004042;28;20195;-77
2023/01/20 12:31:02;;;;;;;35.35;21.23;;;1.80;99.90;;;;;;5003195;28;20503;-78
2023/01/20 12:33:40;;;;;;;32.88;21.55;;;1.90;99.90;;;;;;5001886;28;20049;-79
2023/01/20 12:36:32;;;;;;;35.28;22.73;;;1.90;99.90;;;;;;4985637;28;20100;-77
2023/01/20 12:39:28;;;;;;;33.80;22.55;;;1.90;99.90;;;;;;5002162;28;20128;-77
2023/01/20 12:41:59;;;;;;;35.03;21.05;;;1.90;99.90;;;;;;5005043;28;20041;-77
2023/01/20 12:44:41;;;;;;;40.83;22.63;;;1.90;99.90;;;;;;4986876;28;20388;-77
2023/01/20 12:47:45;;;;;;;39.50;23.38;;;1.90;99.90;;;;;;5002588;28;20037;-77
2023/01/20 12:50:28;;;;;;;37.88;21.45;;;1.80;99.90;;;;;;4988584;28;20068;-76
2023/01/20 12:53:00;;;;;;;35.13;21.67;;;1.80;99.90;;;;;;4990166;28;20111;-77
2023/01/20 12:55:32;;;;;;;35.08;21.38;;;1.80;99.90;;;;;;5008381;28;20038;-76
2023/01/20 12:58:18;;;;;;;34.30;22.23;;;1.80;99.90;;;;;;4988704;28;20052;-75
2023/01/20 13:01:18;;;;;;;35.47;21.40;;;1.80;99.90;;;;;;4970371;28;20053;-75
2023/01/20 13:04:04;;;;;;;38.42;22.38;;;1.90;99.90;;;;;;4989002;28;20300;-75
2023/01/20 13:06:54;;;;;;;34.05;19.75;;;1.90;99.90;;;;;;5012964;28;20049;-75